Time;durP1;ratioP1;P1;durP2;ratioP2;P2;SDS_P1;SDS_P2;PMS_P1;PMS_P2;Temp;Humidity;BMP_temperature;BMP_pressure;BME280_temperature;BME280_humidity;BME280_pressure;Samples;Min_cycle;Max_cycle;Signal;HPM_P1;HPM_P2
2022/03/26 00:01:01;;;;;;;55.90;32.90;;;;;;;;;;778658;179;919326;-62
2022/03/26 00:03:26;;;;;;;63.20;32.60;;;;;;;;;;782868;180;920276;-62
2022/03/26 00:05:52;;;;;;;62.30;34.80;;;;;;;;;;777131;180;921879;-61
2022/03/26 00:08:18;;;;;;;66.00;33.07;;;;;;;;;;767454;180;919495;-61
2022/03/26 00:10:44;;;;;;;59.67;35.30;;;;;;;;;;766357;179;919046;-61
2022/03/26 00:13:09;;;;;;;59.40;34.60;;;;;;;;;;783124;180;918530;-62
2022/03/26 00:15:35;;;;;;;62.40;32.80;;;;;;;;;;777556;179;919349;-62
2022/03/26 00:18:01;;;;;;;72.33;35.67;;;;;;;;;;776408;177;971948;-61
2022/03/26 00:20:27;;;;;;;58.70;34.00;;;;;;;;;;785098;177;920111;-62
2022/03/26 00:22:53;;;;;;;63.27;34.53;;;;;;;;;;761722;183;920311;-62
2022/03/26 00:25:19;;;;;;;59.57;33.17;;;;;;;;;;761726;181;918668;-61
2022/03/26 00:27:44;;;;;;;65.87;35.87;;;;;;;;;;770012;179;919917;-61
2022/03/26 00:30:11;;;;;;;60.30;36.67;;;;;;;;;;766074;180;919198;-62
2022/03/26 00:32:37;;;;;;;56.08;34.88;;;;;;;;;;776692;177;919472;-62
2022/03/26 00:35:03;;;;;;;60.50;34.97;;;;;;;;;;773532;179;919604;-62
2022/03/26 00:37:29;;;;;;;61.83;33.80;;;;;;;;;;773977;180;919358;-61
2022/03/26 00:39:55;;;;;;;55.67;33.50;;;;;;;;;;765172;180;919566;-63
2022/03/26 00:42:21;;;;;;;58.90;33.90;;;;;;;;;;764957;180;919925;-61
2022/03/26 00:44:46;;;;;;;61.30;34.37;;;;;;;;;;769732;180;919454;-62
2022/03/26 00:47:12;;;;;;;67.03;38.30;;;;;;;;;;762999;180;921783;-62
2022/03/26 00:49:38;;;;;;;80.07;39.07;;;;;;;;;;765921;182;1022226;-62
2022/03/26 00:52:04;;;;;;;68.13;37.57;;;;;;;;;;767442;181;919054;-62
2022/03/26 00:54:30;;;;;;;60.07;37.60;;;;;;;;;;770781;179;916301;-62
2022/03/26 00:56:56;;;;;;;68.67;39.40;;;;;;;;;;774050;178;915415;-62
2022/03/26 00:59:22;;;;;;;64.57;37.73;;;;;;;;;;784929;177;916648;-61
2022/03/26 01:01:48;;;;;;;65.17;38.40;;;;;;;;;;777038;177;919465;-61
2022/03/26 01:04:13;;;;;;;68.93;37.57;;;;;;;;;;763245;183;1022118;-61
2022/03/26 01:06:39;;;;;;;77.30;38.00;;;;;;;;;;764999;180;919471;-61
2022/03/26 01:09:07;;;;;;;65.20;37.63;;;;;;;;;;775611;181;918677;-61
2022/03/26 01:11:31;;;;;;;62.83;39.63;;;;;;;;;;775032;179;920391;-62
2022/03/26 01:13:57;;;;;;;63.50;37.80;;;;;;;;;;769659;179;918531;-62
2022/03/26 01:16:24;;;;;;;75.77;39.93;;;;;;;;;;785447;177;919437;-62
2022/03/26 01:18:49;;;;;;;64.23;34.40;;;;;;;;;;780982;176;918828;-61
2022/03/26 01:21:15;;;;;;;74.07;38.53;;;;;;;;;;775522;179;919422;-62
2022/03/26 01:23:41;;;;;;;66.93;34.50;;;;;;;;;;770733;179;921452;-64
2022/03/26 01:26:07;;;;;;;64.77;37.40;;;;;;;;;;772408;182;920935;-62
2022/03/26 01:28:33;;;;;;;61.10;39.20;;;;;;;;;;765945;182;921453;-61
2022/03/26 01:31:00;;;;;;;73.45;39.45;;;;;;;;;;764445;182;920649;-62
2022/03/26 01:33:24;;;;;;;72.40;40.53;;;;;;;;;;784906;175;918953;-61
2022/03/26 01:35:50;;;;;;;66.03;39.90;;;;;;;;;;780850;175;919532;-63
2022/03/26 01:38:16;;;;;;;61.50;38.30;;;;;;;;;;768651;181;919330;-62
2022/03/26 01:40:42;;;;;;;62.07;36.17;;;;;;;;;;773883;180;919052;-63
2022/03/26 01:43:08;;;;;;;59.17;37.40;;;;;;;;;;770516;179;914450;-63
2022/03/26 01:45:34;;;;;;;63.37;37.60;;;;;;;;;;769913;179;915529;-62
2022/03/26 01:48:00;;;;;;;68.70;39.07;;;;;;;;;;780915;179;919029;-63
2022/03/26 01:50:26;;;;;;;57.13;36.17;;;;;;;;;;782476;179;919156;-62
2022/03/26 01:52:52;;;;;;;74.87;40.42;;;;;;;;;;767676;179;918822;-62
2022/03/26 01:55:17;;;;;;;70.80;42.00;;;;;;;;;;764772;180;919258;-62
2022/03/26 01:57:43;;;;;;;73.43;40.83;;;;;;;;;;770616;180;918965;-62
2022/03/26 02:00:10;;;;;;;70.03;36.93;;;;;;;;;;765329;180;919777;-62
2022/03/26 02:02:37;;;;;;;62.93;38.43;;;;;;;;;;767872;179;921118;-62
2022/03/26 02:05:01;;;;;;;63.40;38.43;;;;;;;;;;772412;180;919677;-63
2022/03/26 02:07:27;;;;;;;67.90;38.75;;;;;;;;;;770161;180;919743;-61
2022/03/26 02:09:53;;;;;;;73.67;38.20;;;;;;;;;;771310;180;918946;-61
2022/03/26 02:12:25;;;;;;;72.80;38.87;;;;;;;;;;769957;180;1020976;-62
2022/03/26 02:14:51;;;;;;;65.20;38.57;;;;;;;;;;764751;182;919173;-61
2022/03/26 02:17:18;;;;;;;65.00;37.10;;;;;;;;;;768435;179;919475;-62
2022/03/26 02:19:48;;;;;;;64.68;39.45;;;;;;;;;;769403;179;919768;-63
2022/03/26 02:22:14;;;;;;;66.53;38.00;;;;;;;;;;775501;180;918168;-62
2022/03/26 02:24:40;;;;;;;62.83;36.80;;;;;;;;;;769805;180;919980;-62
2022/03/26 02:27:06;;;;;;;65.10;36.63;;;;;;;;;;777130;179;919734;-61
2022/03/26 02:29:32;;;;;;;60.97;37.00;;;;;;;;;;783155;177;919992;-61
2022/03/26 02:31:58;;;;;;;65.37;38.13;;;;;;;;;;779651;179;919239;-62
2022/03/26 02:34:24;;;;;;;68.07;41.30;;;;;;;;;;769349;180;920279;-61
2022/03/26 02:36:50;;;;;;;63.03;38.87;;;;;;;;;;771245;180;919267;-61
2022/03/26 02:39:16;;;;;;;62.23;37.93;;;;;;;;;;774411;181;1020039;-62
2022/03/26 02:41:41;;;;;;;64.37;36.57;;;;;;;;;;769364;181;919849;-62
2022/03/26 02:44:07;;;;;;;65.70;37.38;;;;;;;;;;770784;180;932511;-63
2022/03/26 02:46:33;;;;;;;67.67;38.13;;;;;;;;;;781585;180;919302;-65
2022/03/26 02:48:59;;;;;;;66.33;40.30;;;;;;;;;;773668;179;918599;-63
2022/03/26 02:51:25;;;;;;;54.90;37.03;;;;;;;;;;766061;182;919243;-62
2022/03/26 02:53:51;;;;;;;66.43;39.57;;;;;;;;;;771316;179;919277;-61
2022/03/26 02:56:19;;;;;;;60.72;39.80;;;;;;;;;;780298;179;920333;-62
2022/03/26 02:58:42;;;;;;;72.67;38.97;;;;;;;;;;774722;179;918838;-61
2022/03/26 03:01:08;;;;;;;66.12;39.22;;;;;;;;;;773070;180;919181;-61
2022/03/26 03:03:35;;;;;;;77.07;39.93;;;;;;;;;;775600;179;919849;-62
2022/03/26 03:06:00;;;;;;;66.57;40.00;;;;;;;;;;766781;177;919401;-62
2022/03/26 03:08:26;;;;;;;84.57;39.30;;;;;;;;;;778550;175;920287;-62
2022/03/26 03:10:53;;;;;;;75.50;38.60;;;;;;;;;;779807;179;919740;-62
2022/03/26 03:13:21;;;;;;;67.30;38.10;;;;;;;;;;778116;179;919407;-62
2022/03/26 03:15:44;;;;;;;70.00;38.65;;;;;;;;;;783935;179;918920;-62
2022/03/26 03:18:11;;;;;;;63.63;38.50;;;;;;;;;;779966;178;919790;-61
2022/03/26 03:20:37;;;;;;;67.87;40.53;;;;;;;;;;773103;182;919923;-61
2022/03/26 03:23:03;;;;;;;65.07;37.33;;;;;;;;;;772792;178;918778;-62
2022/03/26 03:25:30;;;;;;;76.60;37.60;;;;;;;;;;780532;175;919492;-61
2022/03/26 03:27:54;;;;;;;63.73;40.40;;;;;;;;;;782185;178;919753;-63
2022/03/26 03:30:20;;;;;;;58.80;35.47;;;;;;;;;;776883;177;919797;-61
2022/03/26 03:32:46;;;;;;;74.93;41.60;;;;;;;;;;767800;180;957714;-61
2022/03/26 03:35:12;;;;;;;67.03;39.37;;;;;;;;;;776660;180;919778;-62
2022/03/26 03:37:38;;;;;;;73.90;39.50;;;;;;;;;;771088;180;1101252;-62
2022/03/26 03:40:05;;;;;;;67.57;37.47;;;;;;;;;;768062;179;919624;-62
2022/03/26 03:42:31;;;;;;;66.68;39.63;;;;;;;;;;780783;179;919501;-61
2022/03/26 03:44:56;;;;;;;68.67;40.20;;;;;;;;;;781003;178;919187;-62
2022/03/26 03:47:22;;;;;;;56.47;35.70;;;;;;;;;;769317;176;919579;-62
2022/03/26 03:49:48;;;;;;;63.50;38.75;;;;;;;;;;778058;179;918816;-61
2022/03/26 03:52:14;;;;;;;67.57;38.90;;;;;;;;;;777633;180;919491;-62
2022/03/26 03:54:40;;;;;;;69.40;39.07;;;;;;;;;;769360;178;914194;-61
2022/03/26 03:57:06;;;;;;;69.63;41.37;;;;;;;;;;764814;179;919422;-62
2022/03/26 03:59:32;;;;;;;72.87;39.70;;;;;;;;;;771930;180;918956;-61
2022/03/26 04:01:57;;;;;;;65.50;40.42;;;;;;;;;;767258;182;1020577;-61
2022/03/26 04:04:24;;;;;;;63.30;38.37;;;;;;;;;;777955;179;919161;-61
2022/03/26 04:06:49;;;;;;;73.97;38.77;;;;;;;;;;774881;179;919859;-61
2022/03/26 04:09:15;;;;;;;70.37;41.97;;;;;;;;;;775742;179;919290;-62
2022/03/26 04:11:41;;;;;;;60.40;37.73;;;;;;;;;;771004;179;919657;-61
2022/03/26 04:14:07;;;;;;;73.50;39.87;;;;;;;;;;769741;179;919206;-62
2022/03/26 04:16:32;;;;;;;65.33;37.00;;;;;;;;;;775501;179;937466;-61
2022/03/26 04:18:58;;;;;;;66.53;40.43;;;;;;;;;;769281;179;919443;-61
2022/03/26 04:21:24;;;;;;;64.47;39.53;;;;;;;;;;777541;176;951276;-60
2022/03/26 04:23:50;;;;;;;65.60;39.50;;;;;;;;;;780736;178;920081;-60
2022/03/26 04:26:16;;;;;;;72.47;40.25;;;;;;;;;;779032;180;919378;-60
2022/03/26 04:28:42;;;;;;;72.83;38.83;;;;;;;;;;774778;180;919358;-60
2022/03/26 04:31:09;;;;;;;61.50;38.43;;;;;;;;;;775390;180;919759;-61
2022/03/26 04:33:33;;;;;;;64.90;36.07;;;;;;;;;;775888;177;1005251;-61
2022/03/26 04:35:59;;;;;;;70.87;40.50;;;;;;;;;;778360;176;921939;-61
2022/03/26 04:38:25;;;;;;;63.17;35.30;;;;;;;;;;768557;179;1020693;-63
2022/03/26 04:40:51;;;;;;;66.50;40.40;;;;;;;;;;777694;179;919765;-61
2022/03/26 04:43:18;;;;;;;71.23;41.13;;;;;;;;;;781533;179;920355;-61
2022/03/26 04:45:43;;;;;;;65.33;41.67;;;;;;;;;;771080;179;920581;-60
2022/03/26 04:48:09;;;;;;;62.60;37.10;;;;;;;;;;776161;180;921892;-60
2022/03/26 04:50:34;;;;;;;68.50;37.30;;;;;;;;;;767527;181;919291;-60
2022/03/26 04:53:00;;;;;;;69.23;40.60;;;;;;;;;;777240;179;915156;-61
2022/03/26 04:55:26;;;;;;;67.80;39.40;;;;;;;;;;782785;177;914822;-61
2022/03/26 04:57:52;;;;;;;62.60;38.00;;;;;;;;;;768909;179;921374;-61
2022/03/26 05:00:18;;;;;;;72.97;41.00;;;;;;;;;;769067;179;921264;-61
2022/03/26 05:02:44;;;;;;;57.10;38.30;;;;;;;;;;778587;180;914009;-61
2022/03/26 05:05:09;;;;;;;67.13;38.27;;;;;;;;;;779937;177;919514;-60
2022/03/26 05:10:08;;;;;;;66.23;42.57;;;;;;;;;;770263;180;918820;-60
2022/03/26 05:12:33;;;;;;;66.43;43.50;;;;;;;;;;771220;180;913867;-61
2022/03/26 05:14:59;;;;;;;69.27;43.33;;;;;;;;;;767496;178;909684;-60
2022/03/26 05:17:25;;;;;;;75.80;45.70;;;;;;;;;;771300;179;913288;-61
2022/03/26 05:19:51;;;;;;;76.83;41.10;;;;;;;;;;773378;179;909415;-61
2022/03/26 05:22:17;;;;;;;69.50;44.17;;;;;;;;;;769404;179;909378;-60
2022/03/26 05:24:42;;;;;;;79.87;41.58;;;;;;;;;;774220;180;912130;-61
2022/03/26 05:27:08;;;;;;;77.40;42.80;;;;;;;;;;769904;179;916294;-60
2022/03/26 05:29:34;;;;;;;78.40;44.53;;;;;;;;;;772621;179;915816;-60
2022/03/26 05:32:00;;;;;;;84.78;43.08;;;;;;;;;;773373;179;916205;-60
2022/03/26 05:34:26;;;;;;;78.27;43.77;;;;;;;;;;776104;178;916593;-61
2022/03/26 05:36:52;;;;;;;82.77;45.60;;;;;;;;;;779752;179;902524;-60
2022/03/26 05:39:17;;;;;;;86.53;48.03;;;;;;;;;;769679;179;915370;-61
2022/03/26 05:41:43;;;;;;;86.23;47.53;;;;;;;;;;771648;178;920692;-61
2022/03/26 05:44:09;;;;;;;89.87;49.33;;;;;;;;;;777084;178;918317;-61
2022/03/26 05:46:35;;;;;;;89.20;49.23;;;;;;;;;;772882;179;919108;-61
2022/03/26 05:49:02;;;;;;;101.07;52.27;;;;;;;;;;776866;179;918993;-61
2022/03/26 05:51:27;;;;;;;97.53;50.60;;;;;;;;;;759785;182;919263;-61
2022/03/26 05:53:53;;;;;;;97.67;50.80;;;;;;;;;;767416;180;919510;-60
2022/03/26 05:56:18;;;;;;;116.23;59.70;;;;;;;;;;769228;180;919313;-61
2022/03/26 05:58:44;;;;;;;105.73;54.50;;;;;;;;;;769399;180;918623;-62
2022/03/26 06:01:10;;;;;;;105.17;53.33;;;;;;;;;;779505;177;918494;-60
2022/03/26 06:03:36;;;;;;;102.87;51.05;;;;;;;;;;771734;179;920232;-60
2022/03/26 06:06:02;;;;;;;114.87;54.80;;;;;;;;;;774749;177;916194;-59
2022/03/26 06:08:28;;;;;;;108.37;53.60;;;;;;;;;;774504;179;919174;-60
2022/03/26 06:10:54;;;;;;;111.77;56.00;;;;;;;;;;770286;180;919530;-59
2022/03/26 06:13:19;;;;;;;105.10;52.80;;;;;;;;;;769705;179;919597;-62
2022/03/26 06:15:46;;;;;;;96.93;50.30;;;;;;;;;;774921;179;919881;-60
2022/03/26 06:18:12;;;;;;;103.37;51.03;;;;;;;;;;777529;176;920436;-60
2022/03/26 06:20:38;;;;;;;88.43;51.00;;;;;;;;;;769418;179;1023119;-61
2022/03/26 06:23:04;;;;;;;109.10;54.47;;;;;;;;;;769655;179;919534;-60
2022/03/26 06:25:29;;;;;;;95.67;53.00;;;;;;;;;;772364;179;916007;-60
2022/03/26 06:27:55;;;;;;;105.60;52.13;;;;;;;;;;769478;179;915304;-61
2022/03/26 06:30:21;;;;;;;95.87;47.63;;;;;;;;;;768875;179;916097;-61
2022/03/26 06:32:47;;;;;;;98.40;52.13;;;;;;;;;;772634;180;917161;-61
2022/03/26 06:35:13;;;;;;;102.47;51.10;;;;;;;;;;770476;178;917218;-62
2022/03/26 06:37:39;;;;;;;88.17;50.47;;;;;;;;;;774213;179;916479;-61
2022/03/26 06:40:06;;;;;;;97.10;53.30;;;;;;;;;;774064;179;916403;-61
2022/03/26 06:42:31;;;;;;;105.33;54.27;;;;;;;;;;770154;179;1018013;-61
2022/03/26 06:44:59;;;;;;;98.40;49.53;;;;;;;;;;769607;179;920252;-62
2022/03/26 06:47:23;;;;;;;104.87;52.63;;;;;;;;;;773264;179;918561;-62
2022/03/26 06:49:49;;;;;;;88.17;47.40;;;;;;;;;;775165;179;919520;-61
2022/03/26 06:52:15;;;;;;;88.85;49.20;;;;;;;;;;772545;179;919410;-62
2022/03/26 06:54:40;;;;;;;91.93;46.90;;;;;;;;;;771832;177;919330;-62
2022/03/26 06:57:06;;;;;;;83.07;46.87;;;;;;;;;;779837;178;919788;-63
2022/03/26 06:59:32;;;;;;;92.03;46.67;;;;;;;;;;770531;178;929950;-63
2022/03/26 07:01:58;;;;;;;93.73;49.83;;;;;;;;;;778664;177;919172;-63
2022/03/26 07:04:24;;;;;;;72.13;38.00;;;;;;;;;;782329;178;919529;-63
2022/03/26 07:06:49;;;;;;;65.00;27.93;;;;;;;;;;768856;180;919629;-63
2022/03/26 07:09:15;;;;;;;50.53;27.33;;;;;;;;;;770924;179;919466;-63
2022/03/26 07:11:41;;;;;;;43.87;22.43;;;;;;;;;;776293;178;919706;-62
2022/03/26 07:14:07;;;;;;;48.23;25.23;;;;;;;;;;767200;180;918978;-63
2022/03/26 07:16:33;;;;;;;41.00;20.42;;;;;;;;;;765855;180;920374;-62
2022/03/26 07:18:59;;;;;;;42.33;20.17;;;;;;;;;;770700;180;948882;-63
2022/03/26 07:21:25;;;;;;;42.60;21.17;;;;;;;;;;772991;180;919553;-63
2022/03/26 07:23:51;;;;;;;41.57;20.53;;;;;;;;;;770350;179;1052237;-63
2022/03/26 07:26:16;;;;;;;41.67;19.83;;;;;;;;;;770646;179;975894;-62
2022/03/26 07:28:42;;;;;;;50.30;21.87;;;;;;;;;;773883;180;919167;-63
2022/03/26 07:31:08;;;;;;;46.97;22.60;;;;;;;;;;775654;179;918185;-63
2022/03/26 07:33:34;;;;;;;40.23;22.03;;;;;;;;;;776482;177;1020710;-62
2022/03/26 07:36:00;;;;;;;46.58;23.65;;;;;;;;;;770391;180;918077;-63
2022/03/26 07:38:26;;;;;;;37.90;20.33;;;;;;;;;;773195;180;991907;-63
2022/03/26 07:40:53;;;;;;;40.60;20.87;;;;;;;;;;767704;179;923916;-63
2022/03/26 07:43:17;;;;;;;43.17;19.90;;;;;;;;;;771213;179;919948;-63
2022/03/26 07:45:43;;;;;;;48.37;22.40;;;;;;;;;;775742;179;919609;-63
2022/03/26 07:48:09;;;;;;;49.73;20.93;;;;;;;;;;773226;179;918808;-63
2022/03/26 07:50:35;;;;;;;36.17;18.90;;;;;;;;;;776513;177;920659;-65
2022/03/26 07:53:01;;;;;;;37.13;19.70;;;;;;;;;;781295;177;919379;-64
2022/03/26 07:55:27;;;;;;;47.17;20.53;;;;;;;;;;773879;179;919494;-63
2022/03/26 07:57:52;;;;;;;45.92;23.08;;;;;;;;;;775414;177;919936;-63
2022/03/26 08:00:18;;;;;;;45.53;23.37;;;;;;;;;;780986;177;919449;-64
2022/03/26 08:02:44;;;;;;;35.80;19.90;;;;;;;;;;774725;179;919368;-64
2022/03/26 08:05:10;;;;;;;48.83;21.17;;;;;;;;;;770147;179;919190;-64
2022/03/26 08:07:36;;;;;;;47.20;23.23;;;;;;;;;;774561;178;1018797;-64
2022/03/26 08:10:02;;;;;;;38.53;21.33;;;;;;;;;;782518;177;919364;-65
2022/03/26 08:12:28;;;;;;;50.60;23.67;;;;;;;;;;777746;178;919071;-64
2022/03/26 08:14:53;;;;;;;48.40;24.13;;;;;;;;;;771943;179;918230;-63
2022/03/26 08:17:19;;;;;;;51.83;24.20;;;;;;;;;;778487;179;920142;-65
2022/03/26 08:19:46;;;;;;;46.50;22.40;;;;;;;;;;770095;179;919735;-65
2022/03/26 08:22:11;;;;;;;42.97;24.23;;;;;;;;;;767818;179;918578;-64
2022/03/26 08:24:37;;;;;;;40.30;23.17;;;;;;;;;;775471;179;919994;-63
2022/03/26 08:27:04;;;;;;;40.87;22.30;;;;;;;;;;774710;179;920094;-64
2022/03/26 08:29:29;;;;;;;50.90;23.30;;;;;;;;;;775119;179;923354;-64
2022/03/26 08:31:54;;;;;;;41.13;25.43;;;;;;;;;;776474;179;1015472;-65
2022/03/26 08:34:20;;;;;;;38.20;21.77;;;;;;;;;;780617;179;820325;-65
2022/03/26 08:36:46;;;;;;;44.85;22.70;;;;;;;;;;775843;180;916477;-65
2022/03/26 08:39:12;;;;;;;49.10;24.20;;;;;;;;;;771592;178;919182;-64
2022/03/26 08:41:38;;;;;;;39.73;22.00;;;;;;;;;;778676;178;919472;-64
2022/03/26 08:44:04;;;;;;;40.57;22.40;;;;;;;;;;766085;179;919109;-65
2022/03/26 08:46:30;;;;;;;38.40;21.50;;;;;;;;;;769842;180;914615;-66
2022/03/26 08:48:58;;;;;;;40.00;23.23;;;;;;;;;;775736;179;916692;-65
2022/03/26 08:51:21;;;;;;;37.13;20.40;;;;;;;;;;774997;179;620176;-66
2022/03/26 08:53:47;;;;;;;36.77;20.37;;;;;;;;;;776325;179;625389;-66
2022/03/26 08:56:14;;;;;;;30.42;16.87;;;;;;;;;;779200;179;645840;-66
2022/03/26 08:58:40;;;;;;;34.00;19.07;;;;;;;;;;771988;182;614488;-67
2022/03/26 09:01:07;;;;;;;34.73;19.00;;;;;;;;;;762091;182;919027;-67
2022/03/26 09:03:31;;;;;;;35.20;18.90;;;;;;;;;;765141;179;920133;-66
2022/03/26 09:05:57;;;;;;;30.90;18.00;;;;;;;;;;781570;177;920704;-66
2022/03/26 09:08:23;;;;;;;31.57;15.80;;;;;;;;;;776235;177;919390;-66
2022/03/26 09:10:49;;;;;;;30.90;17.92;;;;;;;;;;767348;180;1338653;-66
2022/03/26 09:13:15;;;;;;;33.73;16.80;;;;;;;;;;774513;180;918689;-66
2022/03/26 09:15:40;;;;;;;27.93;15.13;;;;;;;;;;771007;178;919414;-67
2022/03/26 09:18:06;;;;;;;29.70;15.77;;;;;;;;;;770046;180;921827;-66
2022/03/26 09:20:32;;;;;;;30.60;15.63;;;;;;;;;;776715;180;916426;-67
2022/03/26 09:22:58;;;;;;;26.10;15.00;;;;;;;;;;773129;179;916503;-68
2022/03/26 09:25:24;;;;;;;39.30;16.53;;;;;;;;;;770524;179;916084;-66
2022/03/26 09:27:50;;;;;;;31.43;18.50;;;;;;;;;;776832;177;918960;-66
2022/03/26 09:30:16;;;;;;;28.13;17.00;;;;;;;;;;778572;176;919960;-68
2022/03/26 09:32:41;;;;;;;26.50;15.30;;;;;;;;;;770291;180;920240;-69
2022/03/26 09:35:08;;;;;;;25.50;15.93;;;;;;;;;;770038;180;922372;-66
2022/03/26 09:37:34;;;;;;;29.83;16.93;;;;;;;;;;776129;180;919399;-67
2022/03/26 09:40:02;;;;;;;38.57;17.83;;;;;;;;;;773414;180;919635;-66
2022/03/26 09:42:25;;;;;;;29.50;15.33;;;;;;;;;;770091;179;942723;-68
2022/03/26 09:44:51;;;;;;;32.60;15.70;;;;;;;;;;776845;178;918020;-68
2022/03/26 09:47:17;;;;;;;28.57;15.43;;;;;;;;;;773194;176;915813;-66
2022/03/26 09:49:43;;;;;;;22.43;12.67;;;;;;;;;;772011;177;919706;-68
2022/03/26 09:52:09;;;;;;;32.47;13.90;;;;;;;;;;771544;179;919476;-67
2022/03/26 09:54:35;;;;;;;34.63;16.23;;;;;;;;;;774736;180;916276;-67
2022/03/26 09:57:00;;;;;;;27.13;14.83;;;;;;;;;;767865;180;916339;-68
2022/03/26 09:59:26;;;;;;;26.93;15.87;;;;;;;;;;768885;180;915902;-70
2022/03/26 10:01:52;;;;;;;22.90;12.97;;;;;;;;;;776794;179;812920;-68
2022/03/26 10:04:19;;;;;;;30.13;16.47;;;;;;;;;;771158;180;919698;-68
2022/03/26 10:06:47;;;;;;;24.20;14.80;;;;;;;;;;782858;177;919402;-70
2022/03/26 10:09:13;;;;;;;30.47;14.67;;;;;;;;;;775958;179;919153;-68
2022/03/26 10:11:39;;;;;;;28.77;17.27;;;;;;;;;;768325;179;919750;-69
2022/03/26 10:14:05;;;;;;;23.07;14.80;;;;;;;;;;770695;179;919161;-68
2022/03/26 10:16:31;;;;;;;28.57;14.53;;;;;;;;;;771051;179;919492;-68
2022/03/26 10:18:57;;;;;;;29.17;14.73;;;;;;;;;;775292;179;918970;-68
2022/03/26 10:21:23;;;;;;;25.47;15.17;;;;;;;;;;769775;178;1114392;-68
2022/03/26 10:23:49;;;;;;;26.93;15.70;;;;;;;;;;776357;177;919075;-69
2022/03/26 10:26:14;;;;;;;28.70;14.70;;;;;;;;;;777281;178;919652;-67
2022/03/26 10:28:41;;;;;;;20.57;14.20;;;;;;;;;;773531;180;918953;-68
2022/03/26 10:33:46;;;;;;;35.77;16.70;;;;;;;;;;773509;177;919369;-69
2022/03/26 10:36:10;;;;;;;21.90;12.93;;;;;;;;;;777486;179;919684;-69
2022/03/26 10:38:38;;;;;;;23.60;13.50;;;;;;;;;;775910;177;919075;-69
2022/03/26 10:41:06;;;;;;;19.73;11.87;;;;;;;;;;775720;180;956255;-68
2022/03/26 10:43:31;;;;;;;28.95;16.75;;;;;;;;;;781455;179;919481;-69
2022/03/26 10:45:59;;;;;;;23.33;13.87;;;;;;;;;;771124;182;919381;-69
2022/03/26 10:48:27;;;;;;;31.50;15.70;;;;;;;;;;770162;180;920416;-68
2022/03/26 10:50:58;;;;;;;27.27;13.10;;;;;;;;;;767360;179;919658;-69
2022/03/26 10:53:23;;;;;;;29.83;16.17;;;;;;;;;;777353;177;919675;-69
2022/03/26 10:55:49;;;;;;;34.27;15.50;;;;;;;;;;772310;178;919454;-70
2022/03/26 10:58:15;;;;;;;25.23;13.93;;;;;;;;;;773790;176;920107;-69
2022/03/26 11:00:41;;;;;;;26.83;12.93;;;;;;;;;;776013;179;919536;-69
2022/03/26 11:03:08;;;;;;;21.10;13.60;;;;;;;;;;775799;178;919601;-69
2022/03/26 11:05:34;;;;;;;27.23;13.10;;;;;;;;;;771231;179;925801;-68
2022/03/26 11:08:00;;;;;;;23.93;12.47;;;;;;;;;;776885;180;919574;-69
2022/03/26 11:10:26;;;;;;;25.17;12.43;;;;;;;;;;781965;179;918889;-69
2022/03/26 11:12:51;;;;;;;21.10;11.13;;;;;;;;;;775689;178;919661;-68
2022/03/26 11:15:21;;;;;;;22.40;12.30;;;;;;;;;;765247;179;920096;-70
2022/03/26 11:17:53;;;;;;;23.73;13.73;;;;;;;;;;774973;179;919343;-69
2022/03/26 11:20:33;;;;;;;29.63;14.97;;;;;;;;;;779682;179;919243;-71
2022/03/26 11:23:01;;;;;;;26.87;15.60;;;;;;;;;;773577;182;918565;-69
2022/03/26 11:25:36;;;;;;;22.50;14.70;;;;;;;;;;768598;180;919692;-67
2022/03/26 11:28:07;;;;;;;27.13;15.80;;;;;;;;;;771531;179;919775;-68
2022/03/26 11:30:33;;;;;;;28.07;13.70;;;;;;;;;;772193;177;919548;-70
2022/03/26 11:33:05;;;;;;;23.97;14.50;;;;;;;;;;779027;177;1124523;-68
2022/03/26 11:35:31;;;;;;;25.73;11.93;;;;;;;;;;770300;180;919255;-70
2022/03/26 11:37:57;;;;;;;24.93;12.30;;;;;;;;;;774595;178;919349;-68
2022/03/26 11:40:28;;;;;;;21.03;12.70;;;;;;;;;;773968;177;918837;-68
2022/03/26 11:42:54;;;;;;;21.43;13.10;;;;;;;;;;781829;176;918960;-69
2022/03/26 11:52:55;;;;;;;28.60;14.57;;;;;;;;;;780639;180;915654;-70
2022/03/26 11:55:25;;;;;;;32.10;14.20;;;;;;;;;;755365;180;919839;-69
2022/03/26 11:57:48;;;;;;;25.40;14.60;;;;;;;;;;771277;180;919342;-68
2022/03/26 12:00:15;;;;;;;32.83;14.50;;;;;;;;;;765237;180;919625;-69
2022/03/26 12:02:46;;;;;;;31.93;15.90;;;;;;;;;;771563;180;919208;-69
2022/03/26 12:07:43;;;;;;;19.83;13.23;;;;;;;;;;766187;182;919176;-69
2022/03/26 12:10:10;;;;;;;21.43;13.20;;;;;;;;;;775935;179;918759;-70
2022/03/26 12:12:42;;;;;;;31.63;11.97;;;;;;;;;;771425;180;919633;-70
2022/03/26 12:15:25;;;;;;;20.87;12.83;;;;;;;;;;770451;177;1021666;-69
2022/03/26 12:17:52;;;;;;;20.20;12.50;;;;;;;;;;769979;179;918957;-69
2022/03/26 12:20:20;;;;;;;27.63;13.53;;;;;;;;;;766070;180;919099;-68
2022/03/26 12:22:46;;;;;;;24.73;13.90;;;;;;;;;;769780;179;919501;-67
2022/03/26 12:25:16;;;;;;;31.30;13.63;;;;;;;;;;773675;182;941225;-66
2022/03/26 12:27:38;;;;;;;28.87;16.40;;;;;;;;;;777383;179;918709;-69
2022/03/26 12:30:05;;;;;;;27.20;16.97;;;;;;;;;;776634;179;917810;-66
2022/03/26 12:32:30;;;;;;;27.30;15.83;;;;;;;;;;779338;179;919042;-69
2022/03/26 12:34:58;;;;;;;29.90;13.33;;;;;;;;;;773348;179;919916;-69
2022/03/26 12:37:22;;;;;;;22.27;14.00;;;;;;;;;;781539;177;630046;-68
2022/03/26 12:39:48;;;;;;;29.90;15.13;;;;;;;;;;788857;179;630504;-70
2022/03/26 12:42:14;;;;;;;22.90;15.37;;;;;;;;;;773746;179;630413;-67
2022/03/26 12:44:40;;;;;;;22.50;13.67;;;;;;;;;;771384;179;918923;-68
2022/03/26 12:47:06;;;;;;;26.77;12.63;;;;;;;;;;769657;179;919210;-68
2022/03/26 12:49:35;;;;;;;24.90;13.20;;;;;;;;;;782816;178;919126;-69
2022/03/26 12:52:01;;;;;;;27.03;14.47;;;;;;;;;;771968;180;919041;-68
2022/03/26 12:54:28;;;;;;;23.10;12.40;;;;;;;;;;769039;180;921827;-68
2022/03/26 12:56:53;;;;;;;23.20;11.93;;;;;;;;;;779062;180;919502;-68
2022/03/26 12:59:19;;;;;;;31.30;15.97;;;;;;;;;;771620;179;919262;-68
2022/03/26 13:01:45;;;;;;;29.77;15.05;;;;;;;;;;776284;177;919563;-69
2022/03/26 13:04:11;;;;;;;27.33;13.53;;;;;;;;;;771963;178;920030;-70
2022/03/26 13:06:37;;;;;;;28.87;15.03;;;;;;;;;;768254;180;915426;-69
2022/03/26 13:09:03;;;;;;;21.10;13.57;;;;;;;;;;768131;180;919440;-69
2022/03/26 13:11:29;;;;;;;25.70;16.23;;;;;;;;;;769955;180;925081;-68
2022/03/26 13:13:55;;;;;;;20.60;12.10;;;;;;;;;;783780;177;921155;-69
2022/03/26 13:16:24;;;;;;;18.93;12.67;;;;;;;;;;762469;180;919071;-66
2022/03/26 13:18:48;;;;;;;25.83;13.50;;;;;;;;;;763034;181;919302;-68
2022/03/26 13:21:14;;;;;;;20.47;11.67;;;;;;;;;;778263;180;919209;-69
2022/03/26 13:23:41;;;;;;;19.93;11.03;;;;;;;;;;776235;179;919656;-70
2022/03/26 13:26:05;;;;;;;21.30;11.23;;;;;;;;;;772769;177;918629;-68
2022/03/26 13:28:32;;;;;;;18.00;9.20;;;;;;;;;;764453;182;921299;-70
2022/03/26 13:30:58;;;;;;;23.23;10.17;;;;;;;;;;773439;179;918230;-68
2022/03/26 13:33:24;;;;;;;21.67;10.97;;;;;;;;;;775494;179;919865;-69
2022/03/26 13:35:50;;;;;;;27.30;12.10;;;;;;;;;;780250;177;918854;-68
2022/03/26 13:38:15;;;;;;;23.50;10.70;;;;;;;;;;779101;179;918341;-68
2022/03/26 13:40:41;;;;;;;23.03;11.97;;;;;;;;;;767873;180;919840;-69
2022/03/26 13:43:10;;;;;;;15.50;11.25;;;;;;;;;;779920;178;918139;-70
2022/03/26 13:45:33;;;;;;;16.00;9.90;;;;;;;;;;782282;177;920305;-69
2022/03/26 13:47:59;;;;;;;19.52;9.98;;;;;;;;;;781226;179;919176;-69
2022/03/26 13:50:25;;;;;;;17.97;9.40;;;;;;;;;;776763;176;929170;-68
2022/03/26 13:52:51;;;;;;;15.23;8.33;;;;;;;;;;778828;179;920046;-67
2022/03/26 13:55:33;;;;;;;18.33;9.07;;;;;;;;;;783042;179;919122;-69
2022/03/26 13:58:01;;;;;;;23.87;10.80;;;;;;;;;;777040;179;919539;-67
2022/03/26 14:00:26;;;;;;;21.67;10.80;;;;;;;;;;768877;180;918691;-68
2022/03/26 14:02:52;;;;;;;24.97;10.37;;;;;;;;;;771836;176;919295;-68
2022/03/26 14:05:17;;;;;;;27.57;11.60;;;;;;;;;;789372;175;919014;-68
2022/03/26 14:07:43;;;;;;;20.03;9.67;;;;;;;;;;767920;180;919156;-69
2022/03/26 14:10:10;;;;;;;15.90;9.43;;;;;;;;;;770231;179;918656;-70
2022/03/26 14:12:35;;;;;;;16.70;9.23;;;;;;;;;;776204;181;918105;-69